Time;durP1;ratioP1;P1;durP2;ratioP2;P2;SDS_P1;SDS_P2;PMS_P1;PMS_P2;Temp;Humidity;BMP_temperature;BMP_pressure;BME280_temperature;BME280_humidity;BME280_pressure;Samples;Min_cycle;Max_cycle;Signal;HPM_P1;HPM_P2
2023/06/20 00:00:28;;;;;;;11.40;5.50;;;;;;;;;;5061882;28;20021;-77
2023/06/20 00:02:54;;;;;;;9.73;5.07;;;;;;;;;;5050020;28;20025;-75
2023/06/20 00:05:20;;;;;;;6.90;4.97;;;;;;;;;;5045915;28;20033;-76
2023/06/20 00:07:46;;;;;;;10.88;6.30;;;;;;;;;;5052047;28;20029;-76
2023/06/20 00:10:13;;;;;;;8.65;5.20;;;;;;;;;;5065249;28;20136;-76
2023/06/20 00:12:40;;;;;;;8.20;4.63;;;;;;;;;;5069149;28;20045;-76
2023/06/20 00:15:07;;;;;;;7.53;4.97;;;;;;;;;;5065912;28;20143;-77
2023/06/20 00:17:33;;;;;;;7.38;4.68;;;;;;;;;;5035552;28;20045;-76
2023/06/20 00:19:59;;;;;;;7.25;5.13;;;;;;;;;;5053142;28;20048;-75
2023/06/20 00:22:25;;;;;;;7.25;4.80;;;;;;;;;;5042412;28;20041;-75
2023/06/20 00:24:51;;;;;;;7.32;4.50;;;;;;;;;;5037205;28;20028;-76
2023/06/20 00:27:17;;;;;;;10.52;4.70;;;;;;;;;;5033081;28;20507;-77
2023/06/20 00:29:43;;;;;;;7.03;4.25;;;;;;;;;;5049318;28;20021;-76
2023/06/20 00:32:09;;;;;;;7.45;4.75;;;;;;;;;;5044589;28;20053;-77
2023/06/20 00:34:35;;;;;;;9.95;5.32;;;;;;;;;;5050520;28;20033;-76
2023/06/20 00:37:01;;;;;;;7.97;4.22;;;;;;;;;;5056799;28;20054;-76
2023/06/20 00:39:27;;;;;;;7.13;4.88;;;;;;;;;;5069882;28;20025;-76
2023/06/20 00:41:53;;;;;;;10.65;6.18;;;;;;;;;;5044929;28;20441;-76
2023/06/20 00:44:21;;;;;;;8.20;5.43;;;;;;;;;;5056004;28;20034;-77
2023/06/20 00:46:47;;;;;;;7.30;5.05;;;;;;;;;;5044813;28;20029;-76
2023/06/20 00:49:13;;;;;;;6.95;4.47;;;;;;;;;;5062916;28;20031;-78
2023/06/20 00:51:39;;;;;;;8.43;5.30;;;;;;;;;;5049429;28;20502;-76
2023/06/20 00:54:05;;;;;;;8.90;4.88;;;;;;;;;;5031358;28;20029;-76
2023/06/20 00:56:32;;;;;;;6.43;4.57;;;;;;;;;;5042691;28;20033;-77
2023/06/20 00:58:58;;;;;;;9.85;5.38;;;;;;;;;;5042554;28;20028;-78
2023/06/20 01:01:25;;;;;;;7.47;4.93;;;;;;;;;;5031365;28;20025;-76
2023/06/20 01:03:52;;;;;;;5.97;4.22;;;;;;;;;;5047443;28;20059;-76
2023/06/20 01:06:21;;;;;;;10.43;6.72;;;;;;;;;;5031383;28;20025;-78
2023/06/20 01:08:54;;;;;;;8.13;5.20;;;;;;;;;;5049371;28;20459;-76
2023/06/20 01:11:26;;;;;;;8.00;5.25;;;;;;;;;;5058338;28;20023;-76
2023/06/20 01:14:00;;;;;;;7.95;4.75;;;;;;;;;;5034120;28;20075;-76
2023/06/20 01:16:44;;;;;;;7.60;4.60;;;;;;;;;;5049089;28;20098;-77
2023/06/20 01:19:29;;;;;;;8.68;5.30;;;;;;;;;;5011407;28;20033;-77
2023/06/20 01:21:59;;;;;;;6.75;4.45;;;;;;;;;;5040033;28;20457;-76
2023/06/20 01:24:36;;;;;;;9.02;6.03;;;;;;;;;;5035613;28;20037;-78
2023/06/20 01:27:15;;;;;;;9.38;5.50;;;;;;;;;;5043648;28;20028;-76
2023/06/20 01:29:47;;;;;;;8.55;5.32;;;;;;;;;;5048599;28;20182;-76
2023/06/20 01:32:14;;;;;;;8.82;5.20;;;;;;;;;;5048812;28;20491;-77
2023/06/20 01:34:48;;;;;;;10.63;5.03;;;;;;;;;;5047121;28;20029;-76
2023/06/20 01:37:16;;;;;;;9.75;6.00;;;;;;;;;;5035371;28;20032;-76
2023/06/20 01:39:51;;;;;;;6.97;5.15;;;;;;;;;;5049419;28;20025;-77
2023/06/20 01:42:19;;;;;;;5.95;4.13;;;;;;;;;;5052333;28;20016;-77
2023/06/20 01:44:46;;;;;;;10.45;5.40;;;;;;;;;;5054309;28;20025;-76
2023/06/20 01:47:15;;;;;;;9.07;4.90;;;;;;;;;;5048424;28;20025;-76
2023/06/20 01:49:42;;;;;;;9.00;5.80;;;;;;;;;;5048796;28;20032;-75
2023/06/20 01:52:08;;;;;;;7.68;4.90;;;;;;;;;;5030112;28;20853;-75
2023/06/20 01:54:35;;;;;;;10.32;6.55;;;;;;;;;;5030608;28;20482;-75
2023/06/20 01:57:01;;;;;;;10.23;6.05;;;;;;;;;;5042860;28;20029;-76
2023/06/20 01:59:28;;;;;;;10.30;5.25;;;;;;;;;;5049583;28;20017;-76
2023/06/20 02:01:55;;;;;;;11.23;6.57;;;;;;;;;;5051011;28;20067;-77
2023/06/20 02:04:23;;;;;;;9.88;7.05;;;;;;;;;;5067340;28;20024;-76
2023/06/20 02:06:50;;;;;;;7.75;4.95;;;;;;;;;;5048249;28;20017;-75
2023/06/20 02:09:16;;;;;;;10.27;6.07;;;;;;;;;;5048613;28;20082;-76
2023/06/20 02:11:43;;;;;;;8.35;5.30;;;;;;;;;;5030143;28;20033;-77
2023/06/20 02:14:10;;;;;;;8.10;5.47;;;;;;;;;;5044564;28;20030;-77
2023/06/20 02:16:36;;;;;;;10.02;6.53;;;;;;;;;;5036928;28;20398;-77
2023/06/20 02:19:03;;;;;;;9.35;4.47;;;;;;;;;;5027983;28;20083;-77
2023/06/20 02:21:32;;;;;;;14.02;6.97;;;;;;;;;;5036267;28;20033;-75
2023/06/20 02:23:58;;;;;;;8.80;6.25;;;;;;;;;;5034622;28;20079;-75
2023/06/20 02:26:34;;;;;;;7.47;5.40;;;;;;;;;;5047880;28;20036;-74
2023/06/20 02:29:01;;;;;;;8.10;5.32;;;;;;;;;;5040344;28;20060;-74
2023/06/20 02:31:29;;;;;;;9.57;6.50;;;;;;;;;;5050372;28;20608;-76
2023/06/20 02:33:58;;;;;;;10.63;5.97;;;;;;;;;;5034287;28;20448;-76
2023/06/20 02:36:26;;;;;;;7.65;5.63;;;;;;;;;;5030809;28;20510;-77
2023/06/20 02:38:53;;;;;;;9.70;5.72;;;;;;;;;;5060399;28;20025;-77
2023/06/20 02:41:20;;;;;;;8.90;7.15;;;;;;;;;;5050558;28;20502;-75
2023/06/20 02:43:47;;;;;;;12.13;8.05;;;;;;;;;;5041540;28;20087;-74
2023/06/20 02:46:20;;;;;;;9.63;5.82;;;;;;;;;;5046737;28;20024;-75
2023/06/20 02:49:06;;;;;;;8.98;5.88;;;;;;;;;;5052129;28;20032;-76
2023/06/20 02:51:37;;;;;;;7.63;5.55;;;;;;;;;;5012213;28;20455;-76
2023/06/20 02:54:16;;;;;;;10.68;7.18;;;;;;;;;;5034069;28;20021;-75
2023/06/20 02:56:43;;;;;;;11.48;7.22;;;;;;;;;;5045387;28;20099;-77
2023/06/20 02:59:11;;;;;;;9.43;6.25;;;;;;;;;;5027512;28;20390;-75
2023/06/20 03:01:38;;;;;;;9.50;6.80;;;;;;;;;;5059053;28;20021;-77
2023/06/20 03:04:05;;;;;;;12.38;8.20;;;;;;;;;;5057902;28;20021;-75
2023/06/20 03:06:31;;;;;;;9.05;5.93;;;;;;;;;;5051751;28;20074;-76
2023/06/20 03:08:58;;;;;;;12.63;9.10;;;;;;;;;;5051809;28;20029;-76
2023/06/20 03:11:25;;;;;;;12.35;7.03;;;;;;;;;;5051915;28;20029;-76
2023/06/20 03:13:51;;;;;;;10.15;6.38;;;;;;;;;;5051618;28;20029;-77
2023/06/20 03:16:17;;;;;;;8.73;6.40;;;;;;;;;;5059047;28;20037;-75
2023/06/20 03:18:44;;;;;;;9.98;6.20;;;;;;;;;;5070081;28;20367;-75
2023/06/20 03:21:10;;;;;;;8.63;5.88;;;;;;;;;;5051217;28;20032;-74
2023/06/20 03:23:37;;;;;;;10.15;7.20;;;;;;;;;;5040274;28;20040;-78
2023/06/20 03:26:03;;;;;;;7.75;6.15;;;;;;;;;;5048871;28;20025;-76
2023/06/20 03:28:29;;;;;;;11.15;7.00;;;;;;;;;;5040908;28;20112;-76
2023/06/20 03:30:55;;;;;;;11.77;8.05;;;;;;;;;;5046888;28;20033;-77
2023/06/20 03:33:21;;;;;;;9.63;6.97;;;;;;;;;;5050801;28;20055;-76
2023/06/20 03:35:48;;;;;;;9.63;6.43;;;;;;;;;;5046866;28;20432;-76
2023/06/20 03:38:14;;;;;;;9.10;6.88;;;;;;;;;;5041078;28;20021;-76
2023/06/20 03:40:40;;;;;;;11.73;7.38;;;;;;;;;;5032994;28;20040;-76
2023/06/20 03:43:06;;;;;;;9.75;6.97;;;;;;;;;;5049861;28;20078;-74
2023/06/20 03:45:32;;;;;;;11.38;8.10;;;;;;;;;;5032815;28;20084;-75
2023/06/20 03:47:58;;;;;;;10.68;7.30;;;;;;;;;;5041434;28;20018;-76
2023/06/20 03:50:24;;;;;;;7.35;5.65;;;;;;;;;;5033541;28;20021;-76
2023/06/20 03:52:50;;;;;;;9.43;6.63;;;;;;;;;;5031898;28;20487;-77
2023/06/20 03:55:16;;;;;;;8.43;6.30;;;;;;;;;;5035437;28;20097;-76
2023/06/20 03:57:42;;;;;;;10.32;6.53;;;;;;;;;;5032622;28;20056;-76
2023/06/20 04:00:12;;;;;;;10.82;6.85;;;;;;;;;;5050511;28;20037;-76
2023/06/20 04:02:46;;;;;;;9.57;7.60;;;;;;;;;;5050613;28;20116;-77
2023/06/20 04:05:12;;;;;;;10.18;7.93;;;;;;;;;;5052753;28;20047;-76
2023/06/20 04:07:44;;;;;;;11.32;7.90;;;;;;;;;;5032169;28;20410;-76
2023/06/20 04:10:11;;;;;;;7.97;5.70;;;;;;;;;;5045658;28;20382;-76
2023/06/20 04:12:38;;;;;;;10.90;7.45;;;;;;;;;;5050366;28;20037;-77
2023/06/20 04:15:05;;;;;;;9.10;6.25;;;;;;;;;;5049266;28;20040;-75
2023/06/20 04:17:31;;;;;;;9.38;6.75;;;;;;;;;;5048928;28;20029;-77
2023/06/20 04:19:59;;;;;;;12.98;7.22;;;;;;;;;;5050464;28;20079;-76
2023/06/20 04:22:26;;;;;;;11.35;8.40;;;;;;;;;;5051504;28;20482;-77
2023/06/20 04:24:53;;;;;;;9.82;7.70;;;;;;;;;;5019978;28;20029;-77
2023/06/20 04:27:19;;;;;;;11.18;7.93;;;;;;;;;;5061855;28;20043;-76
2023/06/20 04:29:45;;;;;;;11.70;7.68;;;;;;;;;;5036667;28;20499;-76
2023/06/20 04:32:11;;;;;;;8.95;6.78;;;;;;;;;;5035448;28;20053;-75
2023/06/20 04:34:37;;;;;;;9.40;7.18;;;;;;;;;;5050112;28;20032;-76
2023/06/20 04:37:03;;;;;;;10.20;7.40;;;;;;;;;;5050572;28;20032;-75
2023/06/20 04:39:29;;;;;;;12.15;9.02;;;;;;;;;;5051405;28;20055;-76
2023/06/20 04:41:55;;;;;;;11.82;9.43;;;;;;;;;;5049757;28;20407;-76
2023/06/20 04:44:21;;;;;;;11.80;9.70;;;;;;;;;;5058932;28;20029;-76
2023/06/20 04:46:47;;;;;;;9.73;7.70;;;;;;;;;;5033470;28;20029;-76
2023/06/20 04:49:13;;;;;;;11.13;8.18;;;;;;;;;;5051174;28;20028;-75
2023/06/20 04:51:40;;;;;;;14.88;8.52;;;;;;;;;;5050696;28;20095;-75
2023/06/20 04:54:06;;;;;;;11.48;8.73;;;;;;;;;;5049443;28;20402;-76
2023/06/20 04:56:40;;;;;;;12.55;8.73;;;;;;;;;;5039329;28;20037;-77
2023/06/20 04:59:06;;;;;;;15.73;10.15;;;;;;;;;;5050458;28;20490;-77
2023/06/20 05:01:32;;;;;;;10.07;8.50;;;;;;;;;;5064469;28;20463;-76
2023/06/20 05:03:58;;;;;;;11.93;9.55;;;;;;;;;;5061997;28;20148;-76
2023/06/20 05:06:25;;;;;;;11.70;8.93;;;;;;;;;;5062082;28;20025;-77
2023/06/20 05:08:52;;;;;;;11.82;8.43;;;;;;;;;;5062266;28;20032;-76
2023/06/20 05:11:18;;;;;;;13.70;10.13;;;;;;;;;;5044490;28;20043;-75
2023/06/20 05:13:44;;;;;;;14.73;10.05;;;;;;;;;;5062707;28;20128;-76
2023/06/20 05:16:10;;;;;;;14.30;10.50;;;;;;;;;;5069569;28;20550;-75
2023/06/20 05:18:36;;;;;;;13.63;10.32;;;;;;;;;;5050931;28;20540;-75
2023/06/20 05:21:02;;;;;;;14.05;9.80;;;;;;;;;;5059724;28;20357;-76
2023/06/20 05:23:28;;;;;;;11.45;8.50;;;;;;;;;;5041490;28;20028;-75
2023/06/20 05:25:55;;;;;;;11.85;9.07;;;;;;;;;;5061957;28;20028;-76
2023/06/20 05:28:21;;;;;;;14.57;11.45;;;;;;;;;;5075700;28;20107;-76
2023/06/20 05:30:47;;;;;;;14.75;11.23;;;;;;;;;;5060715;28;20025;-76
2023/06/20 05:33:13;;;;;;;12.35;9.48;;;;;;;;;;5060914;28;20171;-76
2023/06/20 05:35:41;;;;;;;11.38;8.82;;;;;;;;;;5058056;28;20037;-75
2023/06/20 05:38:07;;;;;;;11.43;9.23;;;;;;;;;;5063526;28;20298;-76
2023/06/20 05:40:33;;;;;;;14.27;10.45;;;;;;;;;;5059931;28;20029;-75
2023/06/20 05:42:59;;;;;;;12.95;10.60;;;;;;;;;;5054612;28;20025;-75
2023/06/20 05:45:25;;;;;;;14.75;9.68;;;;;;;;;;5056000;28;20071;-76
2023/06/20 05:47:51;;;;;;;13.57;9.48;;;;;;;;;;5053888;28;20025;-77
2023/06/20 05:50:17;;;;;;;14.07;10.10;;;;;;;;;;5050221;28;20083;-76
2023/06/20 05:52:43;;;;;;;12.20;9.43;;;;;;;;;;5045650;28;20031;-74
2023/06/20 05:55:09;;;;;;;13.52;10.68;;;;;;;;;;5022980;28;20162;-75
2023/06/20 05:57:37;;;;;;;19.73;13.18;;;;;;;;;;5035211;28;20029;-78
2023/06/20 06:00:11;;;;;;;14.55;10.13;;;;;;;;;;5035973;28;20048;-77
2023/06/20 06:02:37;;;;;;;17.83;11.88;;;;;;;;;;5042893;28;20020;-77
2023/06/20 06:05:03;;;;;;;15.18;10.88;;;;;;;;;;5023926;28;20432;-79
2023/06/20 06:07:30;;;;;;;13.55;10.65;;;;;;;;;;5049412;28;20025;-76
2023/06/20 06:09:56;;;;;;;13.80;11.95;;;;;;;;;;5048865;28;20025;-76
2023/06/20 06:12:22;;;;;;;14.18;11.02;;;;;;;;;;5032413;28;20036;-77
2023/06/20 06:14:51;;;;;;;11.00;9.23;;;;;;;;;;5038656;28;20069;-80
2023/06/20 06:17:17;;;;;;;13.80;11.55;;;;;;;;;;5046311;28;20033;-77
2023/06/20 06:19:43;;;;;;;13.18;10.45;;;;;;;;;;5029301;28;20025;-77
2023/06/20 06:22:09;;;;;;;13.63;11.15;;;;;;;;;;5039138;28;20021;-75
2023/06/20 06:24:35;;;;;;;10.55;7.25;;;;;;;;;;5051869;28;20025;-77
2023/06/20 06:27:03;;;;;;;13.82;11.70;;;;;;;;;;5052082;28;20383;-76
2023/06/20 06:29:30;;;;;;;10.65;9.20;;;;;;;;;;5056522;28;20028;-81
2023/06/20 06:31:56;;;;;;;15.40;10.25;;;;;;;;;;5039446;28;20164;-76
2023/06/20 06:34:22;;;;;;;14.98;12.00;;;;;;;;;;5051515;28;20399;-77
2023/06/20 06:36:49;;;;;;;12.93;9.88;;;;;;;;;;5037282;28;20060;-80
2023/06/20 06:39:16;;;;;;;15.93;11.38;;;;;;;;;;5033946;28;20063;-76
2023/06/20 06:41:43;;;;;;;14.98;12.45;;;;;;;;;;5022474;28;20086;-79
2023/06/20 06:44:10;;;;;;;15.95;12.85;;;;;;;;;;5071058;28;20036;-81
2023/06/20 06:46:36;;;;;;;11.00;9.70;;;;;;;;;;5051141;28;20127;-77
2023/06/20 06:49:02;;;;;;;17.67;14.77;;;;;;;;;;5051652;28;20055;-77
2023/06/20 06:51:28;;;;;;;14.00;12.38;;;;;;;;;;5052057;28;20021;-78
2023/06/20 06:53:54;;;;;;;17.08;14.15;;;;;;;;;;5051086;28;20059;-77
2023/06/20 06:56:20;;;;;;;17.88;13.95;;;;;;;;;;5058516;28;20036;-78
2023/06/20 06:58:47;;;;;;;18.88;15.80;;;;;;;;;;5040508;28;20333;-80
2023/06/20 07:01:13;;;;;;;11.70;9.65;;;;;;;;;;5051658;28;20033;-79
2023/06/20 07:03:42;;;;;;;11.02;9.15;;;;;;;;;;5039586;28;20025;-80
2023/06/20 07:06:08;;;;;;;13.75;7.68;;;;;;;;;;5040994;28;20064;-79
2023/06/20 07:08:34;;;;;;;19.27;15.80;;;;;;;;;;5065279;28;20078;-77
2023/06/20 07:11:00;;;;;;;13.07;9.75;;;;;;;;;;5053116;28;20025;-79
2023/06/20 07:13:26;;;;;;;15.73;14.02;;;;;;;;;;5052621;28;20032;-80
2023/06/20 07:15:52;;;;;;;11.80;8.55;;;;;;;;;;5037974;28;20044;-78
2023/06/20 07:18:18;;;;;;;14.55;10.65;;;;;;;;;;5052620;28;20066;-79
2023/06/20 07:20:45;;;;;;;11.13;8.95;;;;;;;;;;5051507;28;20101;-80
2023/06/20 07:23:11;;;;;;;13.57;10.50;;;;;;;;;;5050497;28;20025;-78
2023/06/20 07:25:37;;;;;;;14.57;13.05;;;;;;;;;;5043748;28;20121;-78
2023/06/20 07:28:03;;;;;;;15.60;10.20;;;;;;;;;;5045227;28;20021;-79
2023/06/20 07:30:30;;;;;;;14.52;11.70;;;;;;;;;;5047777;28;20017;-78
2023/06/20 07:32:56;;;;;;;12.95;10.45;;;;;;;;;;5033392;28;20045;-82
2023/06/20 07:35:23;;;;;;;13.05;9.82;;;;;;;;;;5043785;28;20045;-78
2023/06/20 07:37:49;;;;;;;9.68;8.25;;;;;;;;;;5038127;28;20025;-81
2023/06/20 07:40:15;;;;;;;10.68;8.02;;;;;;;;;;5064682;28;20032;-81
2023/06/20 07:42:41;;;;;;;11.13;9.82;;;;;;;;;;5036160;28;20056;-79
2023/06/20 07:45:07;;;;;;;13.77;9.63;;;;;;;;;;5036610;28;20102;-79
2023/06/20 07:47:33;;;;;;;11.50;10.15;;;;;;;;;;5051304;28;20028;-79
2023/06/20 07:49:59;;;;;;;12.73;9.48;;;;;;;;;;5050184;28;20040;-77
2023/06/20 07:52:27;;;;;;;17.75;13.18;;;;;;;;;;5060268;28;20033;-79
2023/06/20 07:54:55;;;;;;;13.55;8.57;;;;;;;;;;5038784;28;20048;-81
2023/06/20 07:57:21;;;;;;;11.00;7.90;;;;;;;;;;5040526;28;20475;-79
2023/06/20 07:59:48;;;;;;;13.00;11.52;;;;;;;;;;5043802;28;20029;-82
2023/06/20 08:02:14;;;;;;;8.85;6.90;;;;;;;;;;5063991;28;20032;-81
2023/06/20 08:04:40;;;;;;;13.35;10.95;;;;;;;;;;5052861;28;20107;-79
2023/06/20 08:07:06;;;;;;;11.05;8.25;;;;;;;;;;5052596;28;20036;-82
2023/06/20 08:09:32;;;;;;;15.98;12.15;;;;;;;;;;5051419;28;20024;-77
2023/06/20 08:11:58;;;;;;;10.27;8.00;;;;;;;;;;5051629;28;20055;-81
2023/06/20 08:14:24;;;;;;;11.52;8.57;;;;;;;;;;5054028;28;20044;-84
2023/06/20 08:16:51;;;;;;;9.05;6.90;;;;;;;;;;5069519;28;20394;-82
2023/06/20 08:19:17;;;;;;;10.75;8.52;;;;;;;;;;5047023;28;20029;-80
2023/06/20 08:21:43;;;;;;;16.75;12.98;;;;;;;;;;5056117;28;20033;-79
2023/06/20 08:24:09;;;;;;;16.02;12.00;;;;;;;;;;5033988;28;20478;-80
2023/06/20 08:26:35;;;;;;;12.20;10.05;;;;;;;;;;5061235;28;20025;-80
2023/06/20 08:29:01;;;;;;;9.30;7.28;;;;;;;;;;5058690;28;20021;-82
2023/06/20 08:31:36;;;;;;;7.88;5.90;;;;;;;;;;5041947;28;20025;-79
2023/06/20 08:34:05;;;;;;;8.88;7.05;;;;;;;;;;5057672;28;20070;-82
2023/06/20 08:36:34;;;;;;;9.63;7.88;;;;;;;;;;5067258;28;20633;-80
2023/06/20 08:39:01;;;;;;;9.43;7.80;;;;;;;;;;5051383;28;20820;-81
2023/06/20 08:41:27;;;;;;;8.48;6.53;;;;;;;;;;5032681;28;20026;-80
2023/06/20 08:43:53;;;;;;;7.20;4.88;;;;;;;;;;5055593;28;20029;-79
2023/06/20 08:46:20;;;;;;;7.85;5.82;;;;;;;;;;5032972;28;20025;-81
2023/06/20 08:48:46;;;;;;;10.70;8.52;;;;;;;;;;5037415;28;20333;-79
2023/06/20 08:51:15;;;;;;;12.50;8.93;;;;;;;;;;5034470;28;20119;-82
2023/06/20 08:53:43;;;;;;;10.50;7.17;;;;;;;;;;5052017;28;20033;-79
2023/06/20 08:56:10;;;;;;;9.88;8.10;;;;;;;;;;5051624;28;20040;-87
2023/06/20 08:58:36;;;;;;;6.07;4.70;;;;;;;;;;5052948;28;20024;-83
2023/06/20 09:01:02;;;;;;;7.45;5.93;;;;;;;;;;5032954;28;20033;-79
2023/06/20 09:03:28;;;;;;;8.40;5.22;;;;;;;;;;5051453;28;20132;-83
2023/06/20 09:05:54;;;;;;;6.60;5.20;;;;;;;;;;5049760;28;20025;-79
2023/06/20 09:08:20;;;;;;;10.07;5.93;;;;;;;;;;5050323;28;20029;-81
2023/06/20 09:10:46;;;;;;;6.50;5.20;;;;;;;;;;5051955;28;20025;-81
2023/06/20 09:13:13;;;;;;;8.65;5.75;;;;;;;;;;5035802;28;20040;-81
2023/06/20 09:15:39;;;;;;;7.25;4.82;;;;;;;;;;5032809;28;20041;-84
2023/06/20 09:18:08;;;;;;;7.90;5.40;;;;;;;;;;5037564;28;20072;-82
2023/06/20 09:20:34;;;;;;;8.90;6.85;;;;;;;;;;5063892;28;20105;-84
2023/06/20 09:23:00;;;;;;;9.65;5.78;;;;;;;;;;5036435;28;20020;-82
2023/06/20 09:25:28;;;;;;;10.75;9.32;;;;;;;;;;5032562;28;20036;-83
2023/06/20 09:27:55;;;;;;;10.25;7.85;;;;;;;;;;5050402;28;20104;-83
2023/06/20 09:30:21;;;;;;;8.60;6.35;;;;;;;;;;5049749;28;20021;-81
2023/06/20 09:32:47;;;;;;;8.48;6.82;;;;;;;;;;5034585;28;20494;-81
2023/06/20 09:35:17;;;;;;;14.38;11.13;;;;;;;;;;5048924;28;20461;-79
2023/06/20 09:37:47;;;;;;;9.10;5.53;;;;;;;;;;5033797;28;20872;-83
2023/06/20 09:40:16;;;;;;;8.65;5.55;;;;;;;;;;5045936;28;20096;-81
2023/06/20 09:42:43;;;;;;;7.78;5.43;;;;;;;;;;5029043;28;20118;-82
2023/06/20 09:45:10;;;;;;;6.75;4.85;;;;;;;;;;5032354;28;20467;-81
2023/06/20 09:47:37;;;;;;;8.25;5.03;;;;;;;;;;5021396;28;20491;-81
2023/06/20 09:50:07;;;;;;;8.50;5.07;;;;;;;;;;5048646;28;20029;-84
2023/06/20 09:52:37;;;;;;;9.23;6.68;;;;;;;;;;5050081;28;20032;-82
2023/06/20 09:55:07;;;;;;;8.50;5.93;;;;;;;;;;5036070;28;20673;-81
2023/06/20 09:57:37;;;;;;;7.38;5.30;;;;;;;;;;5039057;28;20026;-83
2023/06/20 10:00:12;;;;;;;12.38;6.30;;;;;;;;;;5052238;28;20056;-83
2023/06/20 10:02:40;;;;;;;6.47;4.50;;;;;;;;;;5051924;28;20029;-83
2023/06/20 10:05:07;;;;;;;9.80;7.35;;;;;;;;;;5050529;28;20120;-81
2023/06/20 10:07:33;;;;;;;9.70;5.32;;;;;;;;;;5051702;28;20028;-84
2023/06/20 10:10:00;;;;;;;10.30;7.22;;;;;;;;;;5048175;28;20475;-81
2023/06/20 10:12:27;;;;;;;9.05;6.18;;;;;;;;;;5051221;28;20032;-83
2023/06/20 10:14:54;;;;;;;8.80;6.47;;;;;;;;;;5032588;28;20029;-82
2023/06/20 10:17:30;;;;;;;6.95;4.63;;;;;;;;;;5050326;28;20067;-83
2023/06/20 10:20:06;;;;;;;9.00;5.35;;;;;;;;;;5051489;28;20021;-85
2023/06/20 10:22:37;;;;;;;7.15;4.47;;;;;;;;;;5036401;28;20039;-82
2023/06/20 10:25:14;;;;;;;7.70;5.18;;;;;;;;;;5060799;28;20031;-80
2023/06/20 10:27:44;;;;;;;7.22;4.00;;;;;;;;;;5052198;28;20028;-85
2023/06/20 10:30:12;;;;;;;7.53;4.82;;;;;;;;;;5054354;28;20025;-81
2023/06/20 10:32:59;;;;;;;5.32;4.05;;;;;;;;;;5026021;28;20048;-82
2023/06/20 10:35:28;;;;;;;5.20;3.42;;;;;;;;;;5036826;28;20044;-79
2023/06/20 10:38:06;;;;;;;6.32;4.20;;;;;;;;;;5047722;28;20075;-82
2023/06/20 10:40:34;;;;;;;7.07;4.13;;;;;;;;;;5031601;28;20079;-77
2023/06/20 10:43:00;;;;;;;4.95;3.30;;;;;;;;;;5057844;28;20021;-85
2023/06/20 10:45:29;;;;;;;4.90;3.40;;;;;;;;;;5033536;28;20078;-85
2023/06/20 10:48:00;;;;;;;6.75;4.30;;;;;;;;;;5048678;28;20060;-84
2023/06/20 10:50:26;;;;;;;7.82;3.67;;;;;;;;;;5048555;28;20043;-80
2023/06/20 10:52:52;;;;;;;6.63;4.53;;;;;;;;;;5047553;28;20083;-77
2023/06/20 10:55:22;;;;;;;5.72;3.30;;;;;;;;;;5050595;28;20037;-83
2023/06/20 10:57:48;;;;;;;5.45;3.50;;;;;;;;;;5064848;28;20069;-85
2023/06/20 11:00:18;;;;;;;5.28;3.53;;;;;;;;;;5053731;28;20024;-84
2023/06/20 11:02:44;;;;;;;;;;;;;;;;;;5040210;28;20029;-83
2023/06/20 11:05:10;;;;;;;6.80;4.15;;;;;;;;;;5058539;28;19911;-85
2023/06/20 11:07:57;;;;;;;7.82;4.15;;;;;;;;;;5047675;28;20025;-84
2023/06/20 11:10:30;;;;;;;5.47;3.20;;;;;;;;;;5037711;28;20409;-86
2023/06/20 11:12:57;;;;;;;4.78;3.30;;;;;;;;;;5055995;28;20017;-84
2023/06/20 11:15:24;;;;;;;5.35;3.35;;;;;;;;;;5056262;28;20037;-86
2023/06/20 11:17:51;;;;;;;5.35;3.03;;;;;;;;;;5034020;28;20025;-82
2023/06/20 11:20:20;;;;;;;4.07;2.65;;;;;;;;;;5051363;28;20040;-84
2023/06/20 11:22:47;;;;;;;4.78;3.03;;;;;;;;;;5030490;28;20376;-81
2023/06/20 11:25:28;;;;;;;4.93;2.78;;;;;;;;;;5027557;28;20036;-86
2023/06/20 11:27:55;;;;;;;4.68;3.25;;;;;;;;;;5017957;28;20195;-85
2023/06/20 11:30:29;;;;;;;6.03;3.42;;;;;;;;;;5034005;28;20079;-86
2023/06/20 11:32:59;;;;;;;4.90;2.88;;;;;;;;;;5022474;28;20053;-84
2023/06/20 11:35:25;;;;;;;4.90;3.05;;;;;;;;;;5036560;28;20048;-84
2023/06/20 11:37:51;;;;;;;6.15;2.60;;;;;;;;;;5033198;28;20154;-83
2023/06/20 11:40:17;;;;;;;4.00;2.75;;;;;;;;;;5029975;28;20022;-82
2023/06/20 11:42:43;;;;;;;3.65;2.10;;;;;;;;;;5023379;28;20079;-86
2023/06/20 11:45:10;;;;;;;6.30;2.67;;;;;;;;;;5036074;28;20036;-83
2023/06/20 11:47:36;;;;;;;3.88;2.40;;;;;;;;;;5053420;28;20433;-84
2023/06/20 11:50:03;;;;;;;3.53;2.40;;;;;;;;;;5017919;28;20032;-80
2023/06/20 11:52:32;;;;;;;3.20;2.42;;;;;;;;;;5031117;28;20033;-83
2023/06/20 11:54:59;;;;;;;4.43;2.65;;;;;;;;;;5031403;28;20397;-85
2023/06/20 11:57:26;;;;;;;4.43;2.35;;;;;;;;;;5031485;28;20117;-86
2023/06/20 11:59:52;;;;;;;4.70;2.90;;;;;;;;;;5033075;28;20049;-86
2023/06/20 12:02:19;;;;;;;5.32;2.50;;;;;;;;;;5045102;28;20359;-83
2023/06/20 12:04:56;;;;;;;3.85;2.72;;;;;;;;;;5037129;28;20037;-86
2023/06/20 12:07:22;;;;;;;5.78;2.70;;;;;;;;;;5033075;28;20037;-85
2023/06/20 12:09:48;;;;;;;6.70;2.30;;;;;;;;;;5022798;28;20029;-86
2023/06/20 12:12:15;;;;;;;5.25;2.80;;;;;;;;;;5021318;28;20026;-86
2023/06/20 12:14:41;;;;;;;3.28;2.13;;;;;;;;;;4997794;28;20526;-87
2023/06/20 12:17:07;;;;;;;3.92;2.53;;;;;;;;;;5030704;28;20029;-86
2023/06/20 12:19:33;;;;;;;3.75;2.40;;;;;;;;;;5013792;28;20056;-80
2023/06/20 12:21:59;;;;;;;4.18;2.40;;;;;;;;;;5028311;28;20041;-84
2023/06/20 12:24:27;;;;;;;4.88;2.70;;;;;;;;;;5020102;28;20021;-86
2023/06/20 12:26:56;;;;;;;5.43;2.65;;;;;;;;;;5039872;28;20033;-85
2023/06/20 12:29:23;;;;;;;5.13;2.63;;;;;;;;;;5015807;28;20022;-84
2023/06/20 12:31:49;;;;;;;6.25;2.42;;;;;;;;;;5051178;28;20045;-84
2023/06/20 12:34:15;;;;;;;5.05;3.03;;;;;;;;;;5049481;28;20420;-85
2023/06/20 12:36:41;;;;;;;3.65;2.10;;;;;;;;;;5058900;28;20040;-82
2023/06/20 12:39:09;;;;;;;3.70;2.30;;;;;;;;;;5063459;28;20060;-85
2023/06/20 12:41:39;;;;;;;4.38;2.80;;;;;;;;;;5062335;28;20032;-86
2023/06/20 12:44:05;;;;;;;3.88;2.53;;;;;;;;;;5061695;28;20022;-87
2023/06/20 12:46:31;;;;;;;2.95;2.00;;;;;;;;;;5054434;28;20028;-81
2023/06/20 12:48:58;;;;;;;4.10;2.20;;;;;;;;;;5054054;28;20036;-84
2023/06/20 12:51:24;;;;;;;4.75;2.80;;;;;;;;;;5062309;28;20033;-86
2023/06/20 12:53:50;;;;;;;4.78;2.47;;;;;;;;;;5048071;28;20071;-84
2023/06/20 12:56:17;;;;;;;4.45;2.78;;;;;;;;;;5053566;28;20102;-89
2023/06/20 12:58:43;;;;;;;4.68;2.90;;;;;;;;;;5051938;28;20083;-80
2023/06/20 13:01:09;;;;;;;4.53;2.15;;;;;;;;;;5052988;28;20022;-88
2023/06/20 13:03:35;;;;;;;5.10;2.80;;;;;;;;;;5052061;28;20060;-87
2023/06/20 13:06:01;;;;;;;5.80;2.22;;;;;;;;;;5049280;28;20475;-81
2023/06/20 13:08:27;;;;;;;3.13;2.00;;;;;;;;;;5042552;28;20048;-86
2023/06/20 13:10:53;;;;;;;4.88;2.35;;;;;;;;;;5035622;28;20151;-85
2023/06/20 13:13:20;;;;;;;5.00;2.53;;;;;;;;;;5042395;28;20031;-84
2023/06/20 13:15:46;;;;;;;5.65;2.90;;;;;;;;;;5021134;28;20521;-87
2023/06/20 13:18:12;;;;;;;3.47;2.10;;;;;;;;;;5042819;28;20471;-86
2023/06/20 13:20:38;;;;;;;3.50;2.03;;;;;;;;;;5036498;28;20387;-89
2023/06/20 13:23:04;;;;;;;3.47;2.30;;;;;;;;;;5034603;28;20028;-87
2023/06/20 13:25:31;;;;;;;3.58;2.10;;;;;;;;;;5047507;28;20032;-87
2023/06/20 13:27:57;;;;;;;4.20;2.30;;;;;;;;;;5051369;28;20029;-88
2023/06/20 13:30:23;;;;;;;3.53;2.25;;;;;;;;;;5033966;28;20025;-88
2023/06/20 13:32:49;;;;;;;3.70;2.45;;;;;;;;;;5034374;28;20055;-90
2023/06/20 13:35:17;;;;;;;5.63;2.28;;;;;;;;;;5055196;28;20028;-86
2023/06/20 13:37:44;;;;;;;4.55;1.95;;;;;;;;;;5053277;28;20025;-88
2023/06/20 13:40:12;;;;;;;5.07;2.65;;;;;;;;;;5053660;28;20029;-90
2023/06/20 13:42:42;;;;;;;4.07;2.15;;;;;;;;;;5041645;28;20111;-81
2023/06/20 13:45:18;;;;;;;3.70;2.40;;;;;;;;;;5060127;28;20211;-82
2023/06/20 13:47:45;;;;;;;4.45;2.42;;;;;;;;;;5036143;28;20020;-80
2023/06/20 13:50:12;;;;;;;4.00;2.10;;;;;;;;;;5031909;28;20496;-81
2023/06/20 13:52:38;;;;;;;5.05;2.47;;;;;;;;;;5050073;28;20148;-83
2023/06/20 13:55:04;;;;;;;3.22;2.10;;;;;;;;;;5047604;28;20391;-79
2023/06/20 13:57:30;;;;;;;5.25;2.50;;;;;;;;;;5054033;28;20487;-81
2023/06/20 13:59:59;;;;;;;3.60;2.13;;;;;;;;;;5051191;28;20751;-84
2023/06/20 14:02:25;;;;;;;5.00;2.30;;;;;;;;;;5055033;28;20429;-88
2023/06/20 14:04:53;;;;;;;2.70;1.77;;;;;;;;;;5045245;28;20024;-88
2023/06/20 14:07:20;;;;;;;4.05;2.22;;;;;;;;;;5030894;28;20070;-80
2023/06/20 14:09:46;;;;;;;4.00;2.13;;;;;;;;;;5025028;28;20033;-84
2023/06/20 14:12:12;;;;;;;4.10;2.53;;;;;;;;;;5045115;28;20109;-79
2023/06/20 14:14:38;;;;;;;3.50;2.00;;;;;;;;;;5043723;28;20026;-85
2023/06/20 14:17:04;;;;;;;4.25;2.50;;;;;;;;;;5036610;28;20037;-78
2023/06/20 14:19:32;;;;;;;5.57;2.65;;;;;;;;;;5032521;28;20783;-85
2023/06/20 14:21:58;;;;;;;4.75;2.67;;;;;;;;;;5049810;28;20100;-83
2023/06/20 14:24:24;;;;;;;3.38;2.00;;;;;;;;;;5045060;28;20025;-83
2023/06/20 14:26:51;;;;;;;4.60;2.47;;;;;;;;;;5069285;28;20028;-79
2023/06/20 14:29:17;;;;;;;2.55;1.70;;;;;;;;;;5059507;28;20067;-89
2023/06/20 14:31:43;;;;;;;2.67;1.70;;;;;;;;;;5032207;28;20503;-79
2023/06/20 14:34:09;;;;;;;3.67;2.00;;;;;;;;;;5049719;28;20490;-81
2023/06/20 14:36:37;;;;;;;5.30;2.53;;;;;;;;;;5052770;28;20059;-79